createdAt,value
2023-03-12T00:02:17.078Z,0.08
2023-03-12T00:04:44.574Z,0.05
2023-03-12T00:07:11.674Z,0.10
2023-03-12T00:09:39.520Z,1.67
2023-03-12T00:12:07.585Z,0.00
2023-03-12T00:14:35.221Z,0.73
2023-03-12T00:17:02.622Z,0.20
2023-03-12T00:19:30.025Z,0.08
2023-03-12T00:21:57.433Z,0.10
2023-03-12T00:24:27.135Z,0.20
2023-03-12T00:26:54.472Z,0.20
2023-03-12T00:29:21.929Z,0.25
2023-03-12T00:31:51.678Z,0.30
2023-03-12T00:34:19.172Z,0.17
2023-03-12T00:36:46.688Z,0.77
2023-03-12T00:39:14.081Z,0.17
2023-03-12T00:41:41.455Z,0.65
2023-03-12T00:44:08.847Z,0.95
2023-03-12T00:46:36.257Z,0.75
2023-03-12T00:49:03.929Z,0.22
2023-03-12T00:51:31.323Z,0.05
2023-03-12T00:53:58.765Z,0.40
2023-03-12T00:56:26.249Z,0.00
2023-03-12T00:58:53.665Z,0.03
2023-03-12T01:01:21.115Z,0.22
2023-03-12T01:03:52.030Z,0.52
2023-03-12T01:06:19.569Z,0.00
2023-03-12T01:08:47.037Z,0.10
2023-03-12T01:11:18.144Z,0.30
2023-03-12T01:13:45.575Z,0.45
2023-03-12T01:16:13.231Z,0.10
2023-03-12T01:18:40.754Z,0.00
2023-03-12T01:21:08.358Z,0.10
2023-03-12T01:23:35.765Z,0.63
2023-03-12T01:26:03.200Z,0.65
2023-03-12T01:28:30.664Z,0.08
2023-03-12T01:30:58.055Z,0.22
2023-03-12T01:33:25.523Z,0.05
2023-03-12T01:35:53.100Z,0.20
2023-03-12T01:38:21.098Z,0.15
2023-03-12T01:40:48.590Z,0.00
2023-03-12T01:43:32.312Z,0.30
2023-03-12T01:46:11.852Z,0.00
2023-03-12T01:48:41.475Z,0.20
2023-03-12T01:51:10.817Z,0.00
2023-03-12T01:53:38.928Z,0.00
2023-03-12T01:56:08.238Z,0.00
2023-03-12T01:58:36.722Z,0.32
2023-03-12T02:01:04.268Z,0.73
2023-03-12T02:03:33.742Z,1.00
2023-03-12T02:06:07.303Z,1.35
2023-03-12T02:08:37.925Z,0.00
2023-03-12T02:11:05.544Z,1.38
2023-03-12T02:13:33.009Z,2.35
2023-03-12T02:16:01.060Z,1.52
2023-03-12T02:18:28.874Z,0.83
2023-03-12T02:20:56.317Z,1.70
2023-03-12T02:23:34.390Z,1.02
2023-03-12T02:26:03.512Z,0.73
2023-03-12T02:30:59.735Z,0.65
2023-03-12T02:33:28.340Z,0.65
2023-03-12T02:35:56.722Z,0.25
2023-03-12T02:38:30.073Z,0.55
2023-03-12T02:40:59.459Z,0.00
2023-03-12T02:43:27.060Z,0.10
2023-03-12T02:45:55.365Z,0.52
2023-03-12T02:48:25.949Z,0.00
2023-03-12T02:50:53.417Z,0.00
2023-03-12T02:53:20.837Z,1.33
2023-03-12T02:55:48.226Z,0.28
2023-03-12T02:58:15.744Z,0.65
2023-03-12T03:00:45.365Z,0.45
2023-03-12T03:03:12.762Z,0.30
2023-03-12T03:05:40.166Z,0.73
2023-03-12T03:08:07.633Z,0.05
2023-03-12T03:10:35.083Z,0.55
2023-03-12T03:13:02.560Z,0.68
2023-03-12T03:15:30.052Z,0.00
2023-03-12T03:17:58.541Z,0.00
2023-03-12T03:20:27.571Z,0.40
2023-03-12T03:25:23.442Z,0.30
2023-03-12T03:27:50.899Z,0.05
2023-03-12T03:30:18.570Z,0.40
2023-03-12T03:32:46.237Z,0.05
2023-03-12T03:35:13.875Z,0.43
2023-03-12T03:37:41.720Z,0.00
2023-03-12T03:40:12.041Z,0.03
2023-03-12T03:45:21.742Z,0.00
2023-03-12T03:47:49.322Z,0.00
2023-03-12T03:50:19.512Z,0.20
2023-03-12T03:52:49.454Z,0.00
2023-03-12T03:55:16.924Z,0.00
2023-03-12T03:57:44.345Z,0.63
2023-03-12T04:00:13.507Z,0.98
2023-03-12T04:05:08.138Z,0.45
2023-03-12T04:07:35.655Z,0.00
2023-03-12T04:10:03.234Z,0.00
2023-03-12T04:12:30.692Z,0.00
2023-03-12T04:14:58.111Z,0.00
2023-03-12T04:17:25.550Z,0.00
2023-03-12T04:19:52.954Z,0.32
2023-03-12T04:22:22.532Z,0.00
2023-03-12T04:24:49.972Z,0.00
2023-03-12T04:27:17.448Z,0.00
2023-03-12T04:29:45.515Z,0.10
2023-03-12T04:32:13.033Z,0.00
2023-03-12T04:34:40.414Z,0.25
2023-03-12T04:37:07.869Z,0.17
2023-03-12T04:39:35.270Z,0.13
2023-03-12T04:42:02.770Z,0.10
2023-03-12T04:44:30.139Z,0.30
2023-03-12T04:46:57.582Z,0.00
2023-03-12T04:49:25.043Z,0.52
2023-03-12T04:51:52.414Z,0.08
2023-03-12T04:54:21.259Z,0.60
2023-03-12T04:56:49.474Z,0.13
2023-03-12T04:59:17.325Z,0.70
2023-03-12T05:01:45.918Z,0.15
2023-03-12T05:04:13.427Z,0.57
2023-03-12T05:06:40.927Z,0.75
2023-03-12T05:09:08.624Z,0.00
2023-03-12T05:11:38.435Z,0.00
2023-03-12T05:14:06.990Z,0.35
2023-03-12T05:16:34.536Z,0.00
2023-03-12T05:19:04.967Z,0.10
2023-03-12T05:21:32.361Z,0.08
2023-03-12T05:24:00.298Z,0.00
2023-03-12T05:26:29.096Z,0.00
2023-03-12T05:28:58.843Z,0.00
2023-03-12T05:31:26.337Z,0.00
2023-03-12T05:33:54.131Z,1.02
2023-03-12T05:36:21.817Z,0.00
2023-03-12T05:38:49.211Z,0.00
2023-03-12T05:41:21.055Z,0.20
2023-03-12T05:43:49.688Z,0.00
2023-03-12T05:46:17.454Z,0.10
2023-03-12T05:48:47.198Z,0.00
2023-03-12T05:51:14.870Z,0.00
2023-03-12T05:53:42.224Z,0.00
2023-03-12T05:56:12.010Z,0.00
2023-03-12T05:58:39.725Z,0.32
2023-03-12T06:01:23.962Z,0.00
2023-03-12T06:03:51.762Z,0.73
2023-03-12T06:06:19.173Z,0.22
2023-03-12T06:08:46.616Z,0.00
2023-03-12T06:11:14.184Z,0.00
2023-03-12T06:13:41.589Z,0.00
2023-03-12T06:16:14.047Z,0.00
2023-03-12T06:18:41.495Z,0.00
2023-03-12T06:21:11.967Z,0.00
2023-03-12T06:23:39.448Z,0.10
2023-03-12T06:26:09.639Z,0.00
2023-03-12T06:28:37.385Z,0.40
2023-03-12T06:31:05.411Z,1.13
2023-03-12T06:33:33.230Z,0.20
2023-03-12T06:36:03.212Z,0.00
2023-03-12T06:38:30.646Z,0.00
2023-03-12T06:40:58.960Z,0.10
2023-03-12T06:43:27.392Z,0.00
2023-03-12T06:45:55.450Z,0.00
2023-03-12T06:48:23.342Z,0.00
2023-03-12T06:50:50.828Z,0.10
2023-03-12T06:53:18.792Z,0.00
2023-03-12T06:55:46.319Z,0.17
2023-03-12T06:58:13.824Z,0.08
2023-03-12T07:00:41.559Z,0.15
2023-03-12T07:03:09.084Z,0.10
2023-03-12T07:05:36.774Z,0.28
2023-03-12T07:08:04.244Z,0.45
2023-03-12T07:10:31.993Z,2.13
2023-03-12T07:12:59.432Z,0.10
2023-03-12T07:15:26.863Z,0.00
2023-03-12T07:17:54.337Z,0.30
2023-03-12T07:20:21.989Z,1.00
2023-03-12T07:22:49.359Z,0.22
2023-03-12T07:25:18.961Z,0.40
2023-03-12T07:27:46.436Z,0.28
2023-03-12T07:30:13.961Z,0.40
2023-03-12T07:32:41.907Z,0.65
2023-03-12T07:35:09.487Z,0.45
2023-03-12T07:37:36.841Z,0.00
2023-03-12T07:40:07.562Z,0.15
2023-03-12T07:42:37.396Z,0.20
2023-03-12T07:45:05.139Z,0.80
2023-03-12T07:47:32.698Z,0.57
2023-03-12T07:50:02.061Z,0.40
2023-03-12T07:52:29.470Z,0.00
2023-03-12T07:54:58.761Z,0.10
2023-03-12T07:57:26.401Z,0.08
2023-03-12T07:59:55.098Z,0.40
2023-03-12T08:02:22.614Z,0.43
2023-03-12T08:04:50.158Z,0.43
2023-03-12T08:07:17.717Z,0.38
2023-03-12T08:09:45.755Z,0.20
2023-03-12T08:12:13.190Z,0.30
2023-03-12T08:14:40.675Z,0.52
2023-03-12T08:17:08.095Z,0.77
2023-03-12T08:19:35.531Z,0.20
2023-03-12T08:22:02.885Z,0.50
2023-03-12T08:24:30.294Z,0.40
2023-03-12T08:26:57.859Z,0.10
2023-03-12T08:29:25.546Z,0.52
2023-03-12T08:32:04.038Z,0.25
2023-03-12T08:34:32.551Z,0.08
2023-03-12T08:36:59.686Z,0.08
2023-03-12T08:39:27.140Z,0.03
2023-03-12T08:41:55.578Z,0.32
2023-03-12T08:44:25.634Z,0.65
2023-03-12T08:46:53.496Z,1.30
2023-03-12T08:49:21.788Z,0.03
2023-03-12T08:51:49.625Z,0.13
2023-03-12T08:54:17.051Z,0.88
2023-03-12T08:56:44.483Z,0.17
2023-03-12T08:59:12.859Z,0.52
2023-03-12T09:01:43.144Z,0.13
2023-03-12T09:04:11.249Z,0.10
2023-03-12T09:06:38.810Z,0.30
2023-03-12T09:09:08.907Z,0.50
2023-03-12T09:11:37.569Z,0.22
2023-03-12T09:16:52.337Z,0.60
2023-03-12T09:19:20.789Z,0.15
2023-03-12T09:21:48.163Z,0.43
2023-03-12T09:24:15.570Z,0.20
2023-03-12T09:26:42.986Z,0.17
2023-03-12T09:29:10.320Z,0.35
2023-03-12T09:31:37.702Z,0.57
2023-03-12T09:34:05.284Z,0.22
2023-03-12T09:36:33.273Z,0.10
2023-03-12T09:39:00.939Z,0.30
2023-03-12T09:41:34.424Z,0.30
2023-03-12T09:44:11.791Z,0.30
2023-03-12T09:46:44.388Z,1.02
2023-03-12T09:49:15.560Z,0.00
2023-03-12T09:51:47.428Z,0.60
2023-03-12T09:54:32.582Z,0.32
2023-03-12T09:57:05.582Z,0.28
2023-03-12T09:59:33.193Z,0.35
2023-03-12T10:02:03.305Z,1.08
2023-03-12T10:04:58.540Z,0.50
2023-03-12T10:07:37.162Z,0.55
2023-03-12T10:10:16.454Z,0.45
2023-03-12T10:12:49.087Z,0.30
2023-03-12T10:15:28.753Z,0.43
2023-03-12T10:18:09.031Z,0.82
2023-03-12T10:20:42.464Z,0.15
2023-03-12T10:23:14.624Z,0.50
2023-03-12T10:25:46.501Z,0.20
2023-03-12T10:28:21.981Z,0.38
2023-03-12T10:30:58.040Z,0.38
2023-03-12T10:33:31.596Z,0.20
2023-03-12T10:35:59.126Z,0.35
2023-03-12T10:38:30.087Z,0.20
2023-03-12T10:40:57.491Z,0.40
2023-03-12T10:43:24.986Z,0.30
2023-03-12T10:46:04.749Z,0.60
2023-03-12T10:48:32.140Z,0.55
2023-03-12T10:51:02.544Z,0.00
2023-03-12T10:53:32.762Z,0.08
2023-03-12T10:56:00.088Z,1.13
2023-03-12T10:58:33.164Z,0.30
2023-03-12T11:01:02.200Z,0.35
2023-03-12T11:06:01.712Z,0.40
2023-03-12T11:08:34.183Z,0.40
2023-03-12T11:11:02.199Z,0.40
2023-03-12T11:13:31.488Z,0.22
2023-03-12T11:16:05.966Z,0.55
2023-03-12T11:18:35.858Z,0.20
2023-03-12T11:21:09.356Z,0.13
2023-03-12T11:23:38.206Z,0.65
2023-03-12T11:26:24.994Z,0.35
2023-03-12T11:28:57.299Z,0.55
2023-03-12T11:31:33.035Z,0.10
2023-03-12T11:34:05.950Z,0.85
2023-03-12T11:36:48.548Z,0.57
2023-03-12T11:39:27.460Z,0.03
2023-03-12T11:41:54.788Z,0.13
2023-03-12T11:44:26.462Z,0.47
2023-03-12T11:47:38.750Z,0.10
2023-03-12T11:50:24.827Z,0.30
2023-03-12T11:52:58.328Z,0.28
2023-03-12T11:56:02.926Z,0.25
2023-03-12T11:58:30.335Z,0.13
2023-03-12T12:01:06.858Z,0.70
2023-03-12T12:03:43.340Z,0.47
2023-03-12T12:06:13.754Z,0.20
2023-03-12T12:08:50.526Z,0.30
2023-03-12T12:11:29.413Z,0.30
2023-03-12T12:14:14.600Z,1.23
2023-03-12T12:16:57.055Z,0.35
2023-03-12T12:19:24.476Z,0.68
2023-03-12T12:22:04.472Z,0.25
2023-03-12T12:25:10.846Z,0.70
2023-03-12T12:27:45.448Z,0.40
2023-03-12T12:30:12.845Z,0.82
2023-03-12T12:32:55.727Z,0.22
2023-03-12T12:35:23.168Z,0.05
2023-03-12T12:37:56.721Z,0.30
2023-03-12T12:40:32.819Z,0.93
2023-03-12T12:43:06.445Z,0.15
2023-03-12T12:45:33.963Z,0.45
2023-03-12T12:48:01.281Z,0.98
2023-03-12T12:50:31.317Z,0.50
2023-03-12T12:53:14.312Z,0.57
2023-03-12T12:55:47.441Z,0.32
2023-03-12T12:58:46.490Z,0.50
2023-03-12T13:01:15.383Z,0.43
2023-03-12T13:03:43.185Z,0.30
2023-03-12T13:06:11.550Z,0.38
2023-03-12T13:08:44.892Z,0.50
2023-03-12T13:11:19.782Z,0.30
2023-03-12T13:13:50.849Z,0.60
2023-03-12T13:16:20.698Z,0.22
2023-03-12T13:18:58.562Z,0.75
2023-03-12T13:21:32.219Z,0.20
2023-03-12T13:24:06.401Z,0.13
2023-03-12T13:26:58.122Z,0.77
2023-03-12T13:29:32.196Z,0.25
2023-03-12T13:31:59.755Z,0.60
2023-03-12T13:34:28.326Z,0.45
2023-03-12T13:37:01.378Z,0.30
2023-03-12T13:39:37.725Z,0.15
2023-03-12T13:42:24.599Z,0.65
2023-03-12T13:44:54.360Z,0.15
2023-03-12T13:47:33.544Z,1.02
2023-03-12T13:50:07.279Z,2.05
2023-03-12T13:52:43.012Z,1.35
2023-03-12T13:55:27.864Z,1.15
2023-03-12T13:58:07.425Z,0.35
2023-03-12T14:00:54.033Z,0.55
2023-03-12T14:03:32.088Z,0.40
2023-03-12T14:06:02.570Z,0.40
2023-03-12T14:08:50.346Z,0.65
2023-03-12T14:11:30.228Z,0.82
2023-03-12T14:14:06.439Z,0.32
2023-03-12T14:16:41.570Z,0.70
2023-03-12T14:19:13.479Z,1.00
2023-03-12T14:21:45.192Z,1.17
2023-03-12T14:24:34.517Z,0.82
2023-03-12T14:27:05.101Z,0.20
2023-03-12T14:29:36.495Z,0.20
2023-03-12T14:32:06.449Z,1.48
2023-03-12T14:34:45.790Z,1.42
2023-03-12T14:37:19.232Z,0.40
2023-03-12T14:39:51.140Z,0.10
2023-03-12T14:42:28.611Z,0.63
2023-03-12T14:45:18.961Z,0.65
2023-03-12T14:47:47.701Z,0.50
2023-03-12T14:50:23.941Z,0.57
2023-03-12T14:52:51.774Z,1.48
2023-03-12T14:55:23.953Z,1.17
2023-03-12T14:58:04.356Z,1.35
2023-03-12T15:00:32.245Z,0.30
2023-03-12T15:03:01.225Z,0.40
2023-03-12T15:07:58.876Z,0.22
2023-03-12T15:10:29.963Z,0.90
2023-03-12T15:12:58.779Z,0.20
2023-03-12T15:15:32.376Z,0.28
2023-03-12T15:18:00.021Z,0.60
2023-03-12T15:20:27.786Z,0.55
2023-03-12T15:22:55.894Z,0.60
2023-03-12T15:25:27.955Z,0.57
2023-03-12T15:28:03.117Z,0.30
2023-03-12T15:30:31.743Z,0.52
2023-03-12T15:33:12.968Z,0.45
2023-03-12T15:35:58.487Z,0.60
2023-03-12T15:38:26.345Z,0.38
2023-03-12T15:40:56.304Z,0.65
2023-03-12T15:43:25.541Z,0.40
2023-03-12T15:46:04.045Z,0.50
2023-03-12T15:48:34.550Z,0.45
2023-03-12T15:51:02.206Z,0.20
2023-03-12T15:53:31.514Z,0.35
2023-03-12T15:56:03.996Z,0.20
2023-03-12T15:58:36.592Z,0.52
2023-03-12T16:01:32.668Z,0.32
2023-03-12T16:04:01.673Z,0.50
2023-03-12T16:06:30.472Z,0.25
2023-03-12T16:09:04.470Z,0.55
2023-03-12T16:11:33.416Z,0.28
2023-03-12T16:14:07.127Z,0.05
2023-03-12T16:16:35.634Z,0.32
2023-03-12T16:19:04.150Z,0.20
2023-03-12T16:21:33.503Z,0.13
2023-03-12T16:24:01.437Z,1.00
2023-03-12T16:26:29.355Z,0.15
2023-03-12T16:28:57.175Z,0.20
2023-03-12T16:31:25.186Z,0.55
2023-03-12T16:33:53.139Z,0.30
2023-03-12T16:36:21.012Z,0.20
2023-03-12T16:38:49.350Z,0.13
2023-03-12T16:41:18.847Z,0.20
2023-03-12T16:43:47.943Z,0.30
2023-03-12T16:48:44.394Z,0.30
2023-03-12T16:51:16.642Z,0.30
2023-03-12T16:53:44.805Z,0.17
2023-03-12T16:56:22.134Z,0.08
2023-03-12T16:58:53.505Z,0.35
2023-03-12T17:01:25.312Z,0.08
2023-03-12T17:03:54.451Z,0.00
2023-03-12T17:06:26.695Z,0.43
2023-03-12T17:08:56.454Z,0.85
2023-03-12T17:11:27.613Z,0.20
2023-03-12T17:14:02.282Z,0.73
2023-03-12T17:16:31.205Z,0.28
2023-03-12T17:21:27.630Z,0.47
2023-03-12T17:23:55.828Z,0.40
2023-03-12T17:26:28.007Z,0.20
2023-03-12T17:28:56.110Z,0.38
2023-03-12T17:31:25.355Z,0.00
2023-03-12T17:33:54.849Z,0.28
2023-03-12T17:36:22.925Z,0.22
2023-03-12T17:38:51.264Z,0.50
2023-03-12T17:41:26.576Z,0.80
2023-03-12T17:44:01.642Z,0.45
2023-03-12T17:46:30.816Z,0.63
2023-03-12T17:48:58.970Z,0.30
2023-03-12T17:51:27.489Z,0.55
2023-03-12T17:53:57.326Z,0.60
2023-03-12T17:56:24.872Z,1.35
2023-03-12T17:58:53.188Z,0.70
2023-03-12T18:01:21.412Z,0.15
2023-03-12T18:03:52.634Z,0.45
2023-03-12T18:06:21.302Z,0.60
2023-03-12T18:08:49.624Z,0.90
2023-03-12T18:11:17.746Z,0.45
2023-03-12T18:13:48.125Z,1.10
2023-03-12T18:16:16.143Z,1.92
2023-03-12T18:18:44.161Z,2.17
2023-03-12T18:21:12.283Z,3.23
2023-03-12T18:23:40.107Z,6.77
2023-03-12T18:26:08.098Z,15.20
2023-03-12T18:28:36.308Z,12.50
2023-03-12T18:31:04.592Z,12.93
2023-03-12T18:33:33.735Z,7.65
2023-03-12T18:36:01.990Z,3.05
2023-03-12T18:38:30.311Z,3.78
2023-03-12T18:41:05.330Z,1.25
2023-03-12T18:43:33.969Z,0.80
2023-03-12T18:46:02.331Z,0.80
2023-03-12T18:48:30.913Z,1.95
2023-03-12T18:51:00.580Z,1.70
2023-03-12T18:53:29.650Z,2.00
2023-03-12T18:58:32.325Z,0.90
2023-03-12T19:01:02.338Z,1.48
2023-03-12T19:03:34.620Z,1.48
2023-03-12T19:06:06.007Z,0.60
2023-03-12T19:08:34.387Z,1.10
2023-03-12T19:11:05.532Z,0.57
2023-03-12T19:13:33.834Z,1.65
2023-03-12T19:16:03.612Z,0.60
2023-03-12T19:18:31.213Z,1.77
2023-03-12T19:20:59.567Z,0.55
2023-03-12T19:23:27.960Z,0.98
2023-03-12T19:25:57.762Z,0.32
2023-03-12T19:28:25.676Z,0.50
2023-03-12T19:31:00.097Z,0.52
2023-03-12T19:33:29.285Z,0.75
2023-03-12T19:38:29.412Z,1.00
2023-03-12T19:40:58.787Z,1.77
2023-03-12T19:43:27.489Z,1.55
2023-03-12T19:45:56.490Z,0.95
2023-03-12T19:53:22.781Z,1.10
2023-03-12T19:55:51.354Z,1.67
2023-03-12T19:58:19.790Z,0.30
2023-03-12T20:00:49.226Z,1.27
2023-03-12T20:03:20.151Z,0.45
2023-03-12T20:05:48.025Z,1.33
2023-03-12T20:08:16.226Z,1.08
2023-03-12T20:10:45.934Z,0.60
2023-03-12T20:13:18.323Z,0.45
2023-03-12T20:15:47.174Z,0.20
2023-03-12T20:18:15.811Z,0.98
2023-03-12T20:20:44.592Z,1.40
2023-03-12T20:23:12.573Z,0.43
2023-03-12T20:25:41.470Z,0.82
2023-03-12T20:28:14.518Z,1.70
2023-03-12T20:30:42.907Z,0.90
2023-03-12T20:33:11.069Z,0.40
2023-03-12T20:35:40.562Z,0.73
2023-03-12T20:38:08.974Z,0.93
2023-03-12T20:40:37.460Z,0.68
2023-03-12T20:43:06.620Z,0.80
2023-03-12T20:45:35.982Z,0.40
2023-03-12T20:48:05.901Z,0.70
2023-03-12T20:50:34.807Z,1.33
2023-03-12T20:53:03.153Z,1.40
2023-03-12T20:55:31.552Z,0.90
2023-03-12T20:58:00.114Z,0.23
2023-03-12T21:00:28.329Z,0.20
2023-03-12T21:02:56.683Z,0.30
2023-03-12T21:05:26.849Z,0.52
2023-03-12T21:07:58.865Z,0.93
2023-03-12T21:10:26.820Z,0.73
2023-03-12T21:12:54.928Z,0.40
2023-03-12T21:15:23.224Z,0.57
2023-03-12T21:17:51.105Z,0.75
2023-03-12T21:20:19.429Z,0.65
2023-03-12T21:22:48.545Z,0.85
2023-03-12T21:25:16.398Z,0.70
2023-03-12T21:27:50.460Z,0.60
2023-03-12T21:30:18.796Z,0.88
2023-03-12T21:32:46.762Z,1.77
2023-03-12T21:35:14.947Z,1.00
2023-03-12T21:37:42.542Z,0.87
2023-03-12T21:40:10.285Z,0.75
2023-03-12T21:42:37.665Z,0.35
2023-03-12T21:45:05.453Z,0.70
2023-03-12T21:47:32.873Z,0.65
2023-03-12T21:50:00.216Z,0.85
2023-03-12T21:52:27.581Z,0.43
2023-03-12T21:54:54.940Z,0.80
2023-03-12T21:57:22.350Z,0.47
2023-03-12T21:59:49.779Z,0.10
2023-03-12T22:02:17.170Z,0.20
2023-03-12T22:04:44.617Z,1.45
2023-03-12T22:07:12.102Z,0.80
2023-03-12T22:09:39.516Z,0.63
2023-03-12T22:12:07.172Z,0.52
2023-03-12T22:14:34.552Z,1.55
2023-03-12T22:17:01.928Z,0.95
2023-03-12T22:19:29.446Z,0.77
2023-03-12T22:21:56.829Z,0.85
2023-03-12T22:24:24.218Z,0.75
2023-03-12T22:26:51.599Z,0.82
2023-03-12T22:29:19.010Z,0.88
2023-03-12T22:31:46.408Z,1.65
2023-03-12T22:34:13.928Z,0.75
2023-03-12T22:36:42.046Z,0.93
2023-03-12T22:39:09.502Z,1.70
2023-03-12T22:41:36.887Z,0.77
2023-03-12T22:44:05.974Z,1.05
2023-03-12T22:49:01.966Z,0.90
2023-03-12T22:51:30.419Z,0.40
2023-03-12T22:54:00.733Z,1.10
2023-03-12T22:56:28.468Z,0.52
2023-03-12T22:58:56.432Z,0.52
2023-03-12T23:01:24.309Z,0.77
2023-03-12T23:03:52.097Z,0.93
2023-03-12T23:06:26.820Z,0.65
2023-03-12T23:08:57.255Z,1.13
2023-03-12T23:11:25.621Z,1.38
2023-03-12T23:13:53.505Z,0.50
2023-03-12T23:16:22.098Z,0.85
2023-03-12T23:18:50.032Z,1.05
2023-03-12T23:21:22.118Z,1.60
2023-03-12T23:23:52.176Z,0.60
2023-03-12T23:26:21.098Z,1.13
2023-03-12T23:28:48.531Z,0.38
2023-03-12T23:31:18.429Z,0.63
2023-03-12T23:33:46.166Z,0.95
2023-03-12T23:36:17.492Z,0.52
2023-03-12T23:38:45.869Z,0.57
2023-03-12T23:41:17.591Z,0.85
2023-03-12T23:43:45.503Z,1.17
2023-03-12T23:46:13.675Z,0.75
2023-03-12T23:48:41.538Z,1.13
2023-03-12T23:51:10.400Z,0.73
2023-03-12T23:53:38.570Z,0.63
2023-03-12T23:56:07.469Z,1.50
2023-03-12T23:58:36.434Z,0.75
